Time;durP1;ratioP1;P1;durP2;ratioP2;P2;SDS_P1;SDS_P2;PMS_P1;PMS_P2;Temp;Humidity;BMP_temperature;BMP_pressure;BME280_temperature;BME280_humidity;BME280_pressure;Samples;Min_cycle;Max_cycle;Signal;HPM_P1;HPM_P2
2023/06/16 00:01:34;;;;;;;3.22;2.50;;;21.20;63.80;;;;;;5024161;28;20480;-33
2023/06/16 00:04:03;;;;;;;4.65;2.97;;;21.20;63.90;;;;;;5024198;28;20037;-33
2023/06/16 00:06:29;;;;;;;2.25;2.05;;;21.20;63.90;;;;;;5022997;28;20033;-33
2023/06/16 00:08:57;;;;;;;2.25;2.05;;;21.10;63.90;;;;;;5022808;28;20072;-34
2023/06/16 00:11:23;;;;;;;3.15;2.22;;;21.10;63.90;;;;;;5023007;28;20028;-34
2023/06/16 00:13:50;;;;;;;5.35;2.90;;;21.10;64.00;;;;;;5021046;28;20021;-34
2023/06/16 00:16:20;;;;;;;2.67;2.35;;;21.10;64.00;;;;;;5023158;28;20427;-33
2023/06/16 00:18:57;;;;;;;2.55;2.25;;;21.00;64.00;;;;;;5023534;28;20025;-33
2023/06/16 00:21:29;;;;;;;3.38;2.13;;;20.90;64.10;;;;;;5020703;28;20038;-33
2023/06/16 00:23:56;;;;;;;2.63;2.42;;;20.90;64.20;;;;;;5024287;28;20753;-34
2023/06/16 00:26:26;;;;;;;4.07;2.38;;;20.90;64.30;;;;;;5023771;28;20424;-34
2023/06/16 00:28:52;;;;;;;4.15;2.00;;;20.90;64.30;;;;;;5024774;28;20052;-32
2023/06/16 00:31:17;;;;;;;2.72;2.15;;;20.90;64.30;;;;;;5027845;28;20034;-33
2023/06/16 00:33:43;;;;;;;2.13;1.92;;;20.80;64.40;;;;;;5028247;28;20808;-34
2023/06/16 00:36:08;;;;;;;3.33;2.33;;;20.80;64.50;;;;;;5028104;28;20041;-33
2023/06/16 00:38:34;;;;;;;2.30;2.10;;;20.70;64.50;;;;;;5027931;28;20977;-32
2023/06/16 00:41:00;;;;;;;3.08;2.10;;;20.70;64.60;;;;;;5027948;28;20033;-34
2023/06/16 00:43:26;;;;;;;2.70;2.50;;;20.70;64.70;;;;;;5027768;28;20021;-33
2023/06/16 00:45:52;;;;;;;2.75;2.13;;;20.70;64.70;;;;;;5028290;28;20691;-33
2023/06/16 00:48:18;;;;;;;2.38;2.17;;;20.60;64.70;;;;;;5028325;28;20029;-33
2023/06/16 00:50:44;;;;;;;2.60;2.38;;;20.60;64.80;;;;;;5028551;28;20052;-34
2023/06/16 00:53:10;;;;;;;3.63;2.15;;;20.60;65.00;;;;;;5028066;28;20045;-34
2023/06/16 00:55:36;;;;;;;2.50;2.30;;;20.50;65.00;;;;;;5027493;28;20017;-32
2023/06/16 00:58:03;;;;;;;2.40;2.20;;;20.50;65.10;;;;;;5028533;28;20457;-33
2023/06/16 01:00:32;;;;;;;3.22;2.00;;;20.40;65.10;;;;;;5027115;28;20391;-33
2023/06/16 01:02:57;;;;;;;2.67;2.40;;;20.40;65.30;;;;;;5027373;28;20480;-33
2023/06/16 01:05:24;;;;;;;5.03;2.30;;;20.30;65.40;;;;;;5026167;28;20048;-33
2023/06/16 01:08:12;;;;;;;4.13;2.50;;;20.40;65.50;;;;;;5024586;28;20036;-33
2023/06/16 01:11:02;;;;;;;3.33;2.42;;;20.30;65.50;;;;;;5026704;28;20591;-32
2023/06/16 01:13:50;;;;;;;3.17;2.60;;;20.30;65.60;;;;;;5026540;28;20041;-33
2023/06/16 01:16:20;;;;;;;2.50;2.30;;;20.30;65.70;;;;;;5025532;28;20514;-33
2023/06/16 01:18:48;;;;;;;2.80;2.38;;;20.30;65.70;;;;;;5025350;28;20075;-34
2023/06/16 01:21:43;;;;;;;3.45;2.67;;;20.30;65.80;;;;;;5026131;28;20112;-33
2023/06/16 01:24:19;;;;;;;2.47;2.28;;;20.30;66.00;;;;;;5024646;28;20045;-34
2023/06/16 01:26:52;;;;;;;3.17;2.47;;;20.30;66.00;;;;;;5027148;28;20037;-34
2023/06/16 01:29:21;;;;;;;2.92;2.60;;;20.30;66.20;;;;;;5026810;28;20026;-32
2023/06/16 01:31:49;;;;;;;3.53;2.40;;;20.20;66.30;;;;;;5026122;28;20021;-33
2023/06/16 01:34:17;;;;;;;3.10;2.42;;;20.20;66.40;;;;;;5026560;28;20052;-33
2023/06/16 01:36:44;;;;;;;3.38;2.53;;;20.20;66.50;;;;;;5025802;28;20496;-33
2023/06/16 01:39:10;;;;;;;4.80;2.75;;;20.10;66.60;;;;;;5026812;28;20079;-34
2023/06/16 01:41:37;;;;;;;4.30;2.78;;;20.10;66.80;;;;;;5025466;28;20021;-33
2023/06/16 01:44:04;;;;;;;4.53;2.90;;;20.10;66.90;;;;;;5026763;28;20071;-33
2023/06/16 01:46:33;;;;;;;2.60;2.40;;;20.10;67.00;;;;;;5026586;28;20104;-32
2023/06/16 01:48:59;;;;;;;3.03;2.47;;;20.00;67.00;;;;;;5015957;28;20028;-32
2023/06/16 01:51:28;;;;;;;2.47;2.28;;;20.00;67.10;;;;;;5025247;28;20492;-32
2023/06/16 01:53:57;;;;;;;3.85;2.70;;;20.00;67.20;;;;;;5026752;28;20068;-32
2023/06/16 01:56:22;;;;;;;3.28;2.60;;;20.00;67.30;;;;;;5024210;28;20496;-33
2023/06/16 01:58:49;;;;;;;2.60;2.40;;;19.90;67.30;;;;;;5024103;28;20033;-33
2023/06/16 02:01:33;;;;;;;4.13;2.83;;;19.90;67.40;;;;;;5026223;28;20029;-33
2023/06/16 02:04:01;;;;;;;3.08;2.63;;;19.80;67.50;;;;;;5026082;28;20031;-33
2023/06/16 02:06:32;;;;;;;3.00;2.58;;;19.80;67.50;;;;;;5024244;28;20048;-32
2023/06/16 02:09:02;;;;;;;4.07;3.10;;;19.80;67.60;;;;;;5025407;28;20022;-31
2023/06/16 02:11:28;;;;;;;3.00;2.80;;;19.70;67.70;;;;;;5009690;28;20096;-33
2023/06/16 02:13:57;;;;;;;2.50;2.30;;;19.60;67.70;;;;;;5025671;28;20104;-32
2023/06/16 02:16:24;;;;;;;3.90;2.60;;;19.60;68.50;;;;;;5023250;28;20603;-32
2023/06/16 02:18:55;;;;;;;3.35;2.78;;;19.50;67.90;;;;;;5025000;28;20033;-33
2023/06/16 02:21:21;;;;;;;3.00;2.70;;;19.50;68.00;;;;;;5024821;28;20029;-34
2023/06/16 02:23:47;;;;;;;3.08;2.25;;;19.50;68.20;;;;;;5023845;28;20108;-34
2023/06/16 02:26:12;;;;;;;2.67;2.42;;;19.40;68.20;;;;;;5024261;28;20063;-33
2023/06/16 02:28:38;;;;;;;2.58;2.20;;;19.40;68.40;;;;;;5024174;28;20108;-33
2023/06/16 02:31:03;;;;;;;3.17;2.45;;;19.40;68.50;;;;;;5025075;28;20132;-32
2023/06/16 02:33:29;;;;;;;2.72;2.28;;;19.30;68.50;;;;;;5024918;28;20159;-32
2023/06/16 02:35:54;;;;;;;2.85;2.55;;;19.30;68.60;;;;;;5025374;28;20396;-33
2023/06/16 02:38:20;;;;;;;3.35;2.78;;;19.30;68.90;;;;;;5024069;28;20105;-33
2023/06/16 02:40:52;;;;;;;3.30;2.92;;;19.20;69.00;;;;;;5025146;28;20067;-33
2023/06/16 02:43:18;;;;;;;2.90;2.63;;;19.20;69.10;;;;;;5024671;28;20032;-33
2023/06/16 02:45:44;;;;;;;3.28;2.83;;;19.20;69.20;;;;;;5025481;28;20029;-33
2023/06/16 02:48:10;;;;;;;3.15;2.40;;;19.20;69.30;;;;;;5024705;28;20025;-33
2023/06/16 02:50:35;;;;;;;4.22;2.83;;;19.20;69.40;;;;;;5024380;28;20611;-33
2023/06/16 02:53:01;;;;;;;3.00;2.75;;;19.10;69.60;;;;;;5025260;28;20148;-33
2023/06/16 02:55:26;;;;;;;2.85;2.65;;;19.10;69.60;;;;;;5023269;28;20033;-33
2023/06/16 02:57:59;;;;;;;4.03;2.80;;;19.00;69.80;;;;;;5025095;28;20033;-33
2023/06/16 03:00:25;;;;;;;4.72;2.90;;;19.00;70.10;;;;;;5023529;28;20583;-33
2023/06/16 03:02:51;;;;;;;3.45;2.50;;;19.00;70.10;;;;;;5023113;28;20029;-31
2023/06/16 03:05:18;;;;;;;3.92;2.38;;;18.90;70.20;;;;;;5022676;28;20071;-33
2023/06/16 03:07:44;;;;;;;3.55;3.25;;;18.90;70.40;;;;;;5023627;28;20041;-33
2023/06/16 03:10:13;;;;;;;6.28;3.05;;;18.90;70.50;;;;;;5023927;28;20044;-33
2023/06/16 03:12:39;;;;;;;2.90;2.60;;;18.90;70.60;;;;;;5024706;28;20051;-32
2023/06/16 03:15:06;;;;;;;2.92;2.70;;;19.00;70.70;;;;;;5025058;28;20037;-32
2023/06/16 03:17:33;;;;;;;2.95;2.60;;;19.00;70.90;;;;;;5023165;28;20025;-33
2023/06/16 03:19:58;;;;;;;3.92;2.70;;;19.00;71.10;;;;;;5023785;28;20033;-33
2023/06/16 03:22:24;;;;;;;5.15;2.80;;;19.00;71.20;;;;;;5020975;28;20060;-33
2023/06/16 03:24:50;;;;;;;3.20;2.70;;;19.00;71.40;;;;;;5023957;28;20124;-32
2023/06/16 03:27:18;;;;;;;2.85;2.65;;;19.00;71.70;;;;;;5024936;28;20484;-33
2023/06/16 03:29:44;;;;;;;4.78;3.38;;;19.00;72.40;;;;;;5024017;28;20021;-33
2023/06/16 03:32:09;;;;;;;4.95;3.20;;;19.00;71.80;;;;;;5024317;28;20028;-33
2023/06/16 03:34:35;;;;;;;3.70;3.28;;;19.10;71.90;;;;;;5024150;28;20116;-33
2023/06/16 03:37:01;;;;;;;4.45;3.03;;;19.00;71.90;;;;;;5024232;28;20053;-33
2023/06/16 03:39:29;;;;;;;4.97;2.95;;;19.00;71.90;;;;;;5024598;28;20021;-33
2023/06/16 03:41:54;;;;;;;4.90;3.47;;;18.90;72.10;;;;;;5025037;28;20060;-33
2023/06/16 03:44:20;;;;;;;4.82;3.15;;;18.90;72.10;;;;;;5023604;28;20622;-33
2023/06/16 03:46:45;;;;;;;3.70;3.10;;;18.90;72.30;;;;;;5024227;28;20029;-34
2023/06/16 03:49:14;;;;;;;4.47;2.53;;;18.90;72.40;;;;;;5024591;28;20088;-33
2023/06/16 03:51:40;;;;;;;3.45;2.90;;;18.90;72.50;;;;;;5023255;28;20017;-33
2023/06/16 03:54:05;;;;;;;4.80;3.10;;;18.80;72.60;;;;;;5023910;28;20515;-33
2023/06/16 03:56:31;;;;;;;6.05;3.30;;;18.70;72.70;;;;;;5024375;28;20033;-34
2023/06/16 03:58:57;;;;;;;4.35;2.97;;;18.70;72.80;;;;;;5023866;28;20040;-33
2023/06/16 04:01:24;;;;;;;5.05;3.30;;;18.60;72.90;;;;;;5023324;28;20051;-33
2023/06/16 04:03:50;;;;;;;3.60;3.13;;;18.50;73.20;;;;;;5024197;28;20017;-32
2023/06/16 04:06:16;;;;;;;3.33;3.03;;;18.40;73.40;;;;;;5023630;28;20025;-32
2023/06/16 04:08:44;;;;;;;3.78;3.20;;;18.40;73.50;;;;;;5022902;28;20030;-32
2023/06/16 04:11:10;;;;;;;2.95;2.65;;;18.30;73.40;;;;;;5021983;28;20053;-32
2023/06/16 04:13:36;;;;;;;4.35;2.72;;;18.30;73.40;;;;;;5022988;28;20535;-32
2023/06/16 04:16:01;;;;;;;3.33;2.92;;;18.40;73.50;;;;;;5024409;28;20033;-33
2023/06/16 04:18:27;;;;;;;4.95;2.70;;;18.40;73.40;;;;;;5022558;28;20022;-32
2023/06/16 04:20:52;;;;;;;3.28;2.70;;;18.40;73.40;;;;;;5023080;28;20493;-34
2023/06/16 04:23:18;;;;;;;5.10;2.92;;;18.50;73.50;;;;;;5020929;28;20484;-33
2023/06/16 04:25:43;;;;;;;3.10;2.90;;;18.50;73.50;;;;;;5022068;28;20069;-33
2023/06/16 04:28:13;;;;;;;4.78;2.97;;;18.60;73.70;;;;;;5023535;28;20373;-33
2023/06/16 04:30:46;;;;;;;3.50;2.80;;;18.60;73.80;;;;;;5022531;28;20088;-34
2023/06/16 04:33:22;;;;;;;5.22;2.95;;;18.60;73.80;;;;;;5023964;28;20029;-34
2023/06/16 04:35:51;;;;;;;4.35;3.25;;;18.60;74.00;;;;;;5023036;28;20386;-32
2023/06/16 04:38:17;;;;;;;4.10;2.90;;;18.60;73.90;;;;;;5022865;28;20487;-32
2023/06/16 04:40:46;;;;;;;3.72;3.00;;;18.60;73.90;;;;;;5022107;28;20476;-33
2023/06/16 04:43:11;;;;;;;3.78;3.00;;;18.60;74.00;;;;;;5022887;28;20018;-33
2023/06/16 04:45:37;;;;;;;4.30;3.20;;;18.60;74.00;;;;;;5023477;28;20037;-33
2023/06/16 04:48:03;;;;;;;4.25;3.22;;;18.50;74.00;;;;;;5022492;28;20506;-33
2023/06/16 04:50:28;;;;;;;3.47;3.10;;;18.50;74.20;;;;;;5023013;28;20041;-32
2023/06/16 04:52:54;;;;;;;3.15;2.85;;;18.50;74.30;;;;;;5023279;28;20562;-33
2023/06/16 04:55:20;;;;;;;8.20;2.95;;;18.50;74.30;;;;;;5022005;28;20022;-33
2023/06/16 04:57:46;;;;;;;5.13;3.20;;;18.50;74.50;;;;;;5022092;28;20025;-34
2023/06/16 05:00:15;;;;;;;4.70;3.30;;;18.50;74.70;;;;;;5012866;28;20026;-32
2023/06/16 05:02:41;;;;;;;3.45;3.13;;;18.50;74.70;;;;;;5022333;28;20101;-33
2023/06/16 05:05:07;;;;;;;2.88;2.67;;;18.50;74.80;;;;;;5022521;28;20122;-33
2023/06/16 05:07:33;;;;;;;4.35;3.35;;;18.50;74.90;;;;;;5023220;28;20443;-33
2023/06/16 05:09:59;;;;;;;5.55;3.47;;;18.60;75.00;;;;;;5020573;28;20021;-33
2023/06/16 05:12:25;;;;;;;5.72;4.18;;;18.60;75.00;;;;;;5024045;28;20528;-34
2023/06/16 05:14:52;;;;;;;3.70;3.03;;;18.60;75.00;;;;;;5021202;28;20465;-33
2023/06/16 05:17:17;;;;;;;3.75;3.05;;;18.60;75.10;;;;;;5026381;28;20037;-33
2023/06/16 05:19:43;;;;;;;3.47;2.90;;;18.70;75.20;;;;;;5026014;28;20028;-32
2023/06/16 05:22:08;;;;;;;5.43;3.20;;;18.70;75.80;;;;;;5025258;28;20096;-33
2023/06/16 05:24:34;;;;;;;5.68;3.20;;;18.70;75.20;;;;;;5026096;28;20755;-32
2023/06/16 05:27:00;;;;;;;3.97;2.75;;;18.70;75.20;;;;;;5027066;28;20769;-33
2023/06/16 05:29:28;;;;;;;4.63;2.88;;;18.70;75.20;;;;;;5025555;28;20025;-33
2023/06/16 05:31:53;;;;;;;5.68;3.03;;;18.70;75.30;;;;;;5027006;28;20033;-33
2023/06/16 05:34:19;;;;;;;3.33;2.90;;;18.80;75.40;;;;;;5026323;28;20032;-33
2023/06/16 05:36:45;;;;;;;3.45;2.70;;;18.80;75.30;;;;;;5026202;28;20563;-32
2023/06/16 05:39:12;;;;;;;3.33;2.55;;;18.80;75.30;;;;;;5026918;28;20033;-34
2023/06/16 05:41:38;;;;;;;3.03;2.50;;;18.80;75.30;;;;;;5027058;28;20092;-33
2023/06/16 05:44:03;;;;;;;2.58;2.38;;;18.90;75.20;;;;;;5025882;28;20457;-32
2023/06/16 05:46:29;;;;;;;2.83;2.53;;;18.90;75.20;;;;;;5026456;28;20060;-33
2023/06/16 05:48:55;;;;;;;2.60;2.28;;;19.00;75.20;;;;;;5026861;28;20049;-34
2023/06/16 05:51:21;;;;;;;4.25;3.00;;;19.00;75.00;;;;;;5025166;28;20025;-33
2023/06/16 05:53:47;;;;;;;3.65;2.50;;;19.10;75.00;;;;;;5027037;28;20049;-33
2023/06/16 05:56:12;;;;;;;4.75;2.90;;;19.10;74.90;;;;;;5026304;28;20072;-33
2023/06/16 05:58:38;;;;;;;4.72;2.70;;;19.20;74.70;;;;;;5023530;28;20037;-33
2023/06/16 06:01:06;;;;;;;3.83;2.53;;;19.20;74.40;;;;;;5031626;28;20146;-33
2023/06/16 06:03:35;;;;;;;2.58;2.38;;;19.20;74.10;;;;;;5028428;28;20112;-33
2023/06/16 06:06:01;;;;;;;2.70;2.50;;;19.30;74.00;;;;;;5023770;28;20053;-32
2023/06/16 06:08:28;;;;;;;2.88;2.67;;;19.30;73.80;;;;;;5021903;28;20476;-33
2023/06/16 06:10:59;;;;;;;2.70;2.50;;;19.30;73.80;;;;;;5023280;28;20715;-33
2023/06/16 06:13:27;;;;;;;2.20;2.00;;;19.30;73.70;;;;;;5024564;28;20076;-33
2023/06/16 06:15:53;;;;;;;3.42;2.50;;;19.40;73.60;;;;;;5024775;28;20044;-33
2023/06/16 06:18:19;;;;;;;2.70;2.40;;;19.40;73.70;;;;;;5023223;28;20025;-33
2023/06/16 06:20:45;;;;;;;2.83;2.25;;;19.40;73.90;;;;;;5021932;28;20052;-33
2023/06/16 06:23:12;;;;;;;5.47;2.60;;;19.40;74.20;;;;;;5024529;28;20063;-33
2023/06/16 06:25:37;;;;;;;2.42;2.22;;;19.50;74.30;;;;;;5023493;28;20033;-33
2023/06/16 06:28:03;;;;;;;3.53;2.53;;;19.40;74.40;;;;;;5023101;28;20030;-33
2023/06/16 06:30:29;;;;;;;3.40;2.40;;;19.50;74.60;;;;;;5024016;28;20064;-35
2023/06/16 06:32:57;;;;;;;3.63;2.40;;;19.50;74.80;;;;;;5023853;28;20108;-32
2023/06/16 06:35:23;;;;;;;6.10;3.47;;;19.50;75.20;;;;;;5020197;28;20037;-33
2023/06/16 06:37:48;;;;;;;3.10;2.75;;;19.40;76.00;;;;;;5024754;28;20068;-33
2023/06/16 06:40:15;;;;;;;3.13;2.83;;;19.40;75.80;;;;;;5023751;28;20025;-33
2023/06/16 06:42:40;;;;;;;3.38;2.63;;;19.40;75.70;;;;;;5021088;28;20030;-33
2023/06/16 06:45:08;;;;;;;4.18;3.28;;;19.50;75.60;;;;;;5023760;28;20036;-33
2023/06/16 06:47:33;;;;;;;3.28;2.97;;;19.50;75.50;;;;;;5022010;28;20033;-32
2023/06/16 06:49:59;;;;;;;3.25;2.75;;;19.60;75.40;;;;;;5021078;28;20037;-32
2023/06/16 06:52:25;;;;;;;3.42;2.90;;;19.60;75.40;;;;;;5021057;28;20154;-33
2023/06/16 06:54:50;;;;;;;3.47;2.70;;;19.70;75.50;;;;;;5023194;28;20029;-33
2023/06/16 06:57:16;;;;;;;3.20;2.90;;;19.70;75.50;;;;;;5025037;28;20416;-33
2023/06/16 06:59:42;;;;;;;3.80;2.45;;;19.70;75.50;;;;;;5023719;28;20548;-33
2023/06/16 07:02:08;;;;;;;3.05;2.65;;;19.80;75.40;;;;;;5024412;28;20457;-33
2023/06/16 07:04:34;;;;;;;2.70;2.50;;;19.80;75.40;;;;;;5022942;28;20049;-32
2023/06/16 07:07:01;;;;;;;4.75;2.65;;;19.90;75.20;;;;;;5022429;28;20099;-33
2023/06/16 07:09:29;;;;;;;4.88;2.55;;;19.90;75.00;;;;;;5021660;28;20025;-33
2023/06/16 07:11:54;;;;;;;3.85;2.47;;;20.00;75.00;;;;;;5022672;28;20036;-33
2023/06/16 07:14:20;;;;;;;2.92;2.60;;;20.10;74.80;;;;;;5018893;28;20022;-34
2023/06/16 07:16:45;;;;;;;4.07;2.40;;;20.10;74.50;;;;;;5024646;28;20946;-32
2023/06/16 07:19:11;;;;;;;3.03;2.65;;;20.20;74.80;;;;;;5024301;28;20548;-33
2023/06/16 07:21:39;;;;;;;2.92;2.58;;;20.30;73.80;;;;;;5024370;28;20902;-33
2023/06/16 07:24:08;;;;;;;3.55;2.42;;;20.40;73.50;;;;;;5024921;28;20551;-33
2023/06/16 07:26:34;;;;;;;2.60;2.40;;;20.50;73.40;;;;;;5023332;28;20492;-33
2023/06/16 07:29:00;;;;;;;2.80;2.60;;;20.50;72.80;;;;;;5024301;28;20033;-33
2023/06/16 07:31:26;;;;;;;2.88;2.58;;;20.50;72.00;;;;;;5023701;28;20030;-33
2023/06/16 07:33:55;;;;;;;3.10;2.60;;;20.60;71.90;;;;;;5025033;28;20037;-35
2023/06/16 07:36:21;;;;;;;3.13;2.42;;;20.70;71.40;;;;;;5023823;28;20060;-33
2023/06/16 07:38:46;;;;;;;3.97;2.85;;;20.70;71.20;;;;;;5023995;28;20109;-33
2023/06/16 07:41:12;;;;;;;2.72;2.50;;;20.80;70.90;;;;;;5024531;28;20492;-33
2023/06/16 07:43:37;;;;;;;2.42;2.22;;;20.80;70.70;;;;;;5023688;28;20784;-35
2023/06/16 07:46:03;;;;;;;2.95;2.65;;;20.90;70.60;;;;;;5021080;28;20079;-34
2023/06/16 07:48:28;;;;;;;2.63;2.42;;;20.90;70.30;;;;;;5022400;28;20044;-33
2023/06/16 07:50:54;;;;;;;3.00;2.70;;;21.00;70.20;;;;;;5021574;28;20396;-32
2023/06/16 07:53:20;;;;;;;3.17;2.88;;;20.90;69.70;;;;;;5023592;28;20049;-33
2023/06/16 07:55:46;;;;;;;2.65;2.45;;;21.00;69.50;;;;;;5023159;28;20026;-33
2023/06/16 07:58:12;;;;;;;3.60;2.53;;;21.10;69.30;;;;;;5022472;28;20618;-33
2023/06/16 08:00:37;;;;;;;4.10;2.88;;;21.10;69.20;;;;;;5023054;28;20115;-33
2023/06/16 08:03:03;;;;;;;2.55;2.35;;;21.10;68.70;;;;;;5016375;28;20496;-34
2023/06/16 08:05:28;;;;;;;3.70;2.40;;;21.20;68.70;;;;;;5018695;28;20065;-34
2023/06/16 08:07:54;;;;;;;2.97;2.22;;;21.20;67.70;;;;;;5019304;28;20040;-34
2023/06/16 08:10:23;;;;;;;2.67;2.47;;;21.30;67.80;;;;;;5021108;28;20021;-34
2023/06/16 08:12:49;;;;;;;2.60;2.40;;;21.40;67.80;;;;;;5023389;28;20029;-34
2023/06/16 08:15:16;;;;;;;3.10;2.80;;;21.40;67.80;;;;;;5023605;28;20179;-34
2023/06/16 08:17:42;;;;;;;2.45;2.25;;;21.50;67.80;;;;;;5023947;28;20037;-33
2023/06/16 08:20:09;;;;;;;2.60;2.40;;;21.50;67.60;;;;;;5023748;28;20131;-33
2023/06/16 08:22:34;;;;;;;2.83;2.53;;;21.60;67.70;;;;;;5015872;28;20088;-34
2023/06/16 08:25:02;;;;;;;4.60;2.92;;;21.60;67.60;;;;;;5011656;28;20469;-34
2023/06/16 08:27:27;;;;;;;2.97;2.78;;;21.70;67.40;;;;;;5012902;28;20121;-31
2023/06/16 08:29:53;;;;;;;3.28;2.97;;;21.80;67.40;;;;;;5017841;28;20108;-32
2023/06/16 08:32:19;;;;;;;2.45;2.00;;;21.80;67.50;;;;;;5022347;28;20033;-33
2023/06/16 08:34:45;;;;;;;2.63;2.40;;;21.90;67.70;;;;;;5013177;28;20813;-34
2023/06/16 08:37:10;;;;;;;3.38;2.50;;;21.90;67.60;;;;;;5023974;28;20025;-34
2023/06/16 08:39:36;;;;;;;2.83;2.45;;;21.90;67.60;;;;;;5023208;28;20025;-33
2023/06/16 08:42:04;;;;;;;3.10;2.20;;;22.00;67.70;;;;;;5023916;28;20510;-33
2023/06/16 08:44:32;;;;;;;2.50;2.30;;;22.00;67.60;;;;;;5023988;28;20025;-33
2023/06/16 08:46:58;;;;;;;2.30;2.10;;;22.00;67.50;;;;;;5021311;28;20072;-34
2023/06/16 08:49:24;;;;;;;2.55;2.35;;;22.10;67.50;;;;;;5014014;28;20113;-34
2023/06/16 08:51:51;;;;;;;2.83;2.63;;;22.00;67.50;;;;;;5023147;28;20029;-34
2023/06/16 08:54:21;;;;;;;3.22;2.58;;;22.10;67.60;;;;;;5026318;28;20129;-34
2023/06/16 08:56:50;;;;;;;3.60;2.70;;;22.10;67.60;;;;;;5019544;28;20105;-33
2023/06/16 08:59:17;;;;;;;2.65;2.45;;;22.20;67.60;;;;;;5019278;28;20140;-33
2023/06/16 09:01:44;;;;;;;3.00;2.70;;;22.30;67.50;;;;;;5025153;28;20075;-34
2023/06/16 09:04:09;;;;;;;3.25;2.80;;;22.30;67.20;;;;;;5027592;28;20065;-34
2023/06/16 09:06:36;;;;;;;5.45;2.70;;;22.40;67.10;;;;;;5022680;28;20180;-34
2023/06/16 09:09:03;;;;;;;3.45;2.70;;;22.60;67.00;;;;;;5025009;28;20381;-33
2023/06/16 09:11:31;;;;;;;2.65;2.20;;;22.60;66.70;;;;;;5023813;28;20021;-34
2023/06/16 09:13:56;;;;;;;2.80;2.60;;;22.70;66.30;;;;;;5025134;28;20029;-34
2023/06/16 09:16:23;;;;;;;2.53;2.33;;;22.80;65.00;;;;;;5026193;28;20130;-35
2023/06/16 09:18:49;;;;;;;2.38;2.15;;;22.90;65.10;;;;;;5025783;28;20030;-33
2023/06/16 09:21:20;;;;;;;2.40;2.20;;;22.90;64.80;;;;;;5022345;28;20063;-34
2023/06/16 09:23:48;;;;;;;2.88;2.40;;;22.90;64.70;;;;;;5022571;28;20504;-34
2023/06/16 09:26:13;;;;;;;2.58;2.38;;;22.90;64.60;;;;;;5025823;28;20045;-34
2023/06/16 09:28:44;;;;;;;2.55;2.35;;;22.90;64.40;;;;;;5025707;28;20028;-34
2023/06/16 09:31:13;;;;;;;2.58;2.38;;;23.00;63.80;;;;;;5039995;28;20027;-35
2023/06/16 09:33:40;;;;;;;2.85;2.40;;;23.00;64.10;;;;;;5026626;28;20418;-34
2023/06/16 09:36:10;;;;;;;2.83;2.60;;;23.10;64.20;;;;;;5023905;28;20033;-35
2023/06/16 09:38:37;;;;;;;2.70;2.40;;;23.20;63.40;;;;;;5022607;28;20049;-33
2023/06/16 09:41:15;;;;;;;2.47;1.88;;;23.30;63.20;;;;;;5022747;28;20039;-32
2023/06/16 09:43:42;;;;;;;3.22;2.90;;;23.40;63.40;;;;;;5021919;28;20075;-34
2023/06/16 09:46:14;;;;;;;3.03;2.55;;;23.40;62.20;;;;;;5023455;28;20128;-33
2023/06/16 09:48:47;;;;;;;;;;;23.50;62.40;;;;;;5025709;28;20815;-33
2023/06/16 09:51:20;;;;;;;2.92;2.60;;;23.50;62.20;;;;;;5025545;28;20043;-33
2023/06/16 09:53:46;;;;;;;3.03;2.20;;;23.60;62.30;;;;;;5025284;28;20235;-33
2023/06/16 09:56:15;;;;;;;2.10;1.90;;;23.60;62.00;;;;;;5025428;28;20030;-32
2023/06/16 09:58:40;;;;;;;2.58;2.38;;;23.70;62.10;;;;;;5024191;28;20018;-33
2023/06/16 10:01:07;;;;;;;3.30;3.00;;;23.70;62.10;;;;;;5025360;28;20041;-33
2023/06/16 10:03:37;;;;;;;3.05;2.80;;;23.80;60.60;;;;;;5021254;28;20029;-33
2023/06/16 10:06:07;;;;;;;4.03;2.75;;;23.80;60.00;;;;;;5026133;28;20060;-33
2023/06/16 10:08:32;;;;;;;2.53;2.33;;;23.80;60.10;;;;;;5020145;28;20047;-32
2023/06/16 10:10:58;;;;;;;2.60;2.40;;;23.80;60.40;;;;;;5021579;28;20050;-31
2023/06/16 10:13:26;;;;;;;2.95;2.65;;;23.80;60.00;;;;;;5023703;28;20057;-33
2023/06/16 10:15:53;;;;;;;3.08;2.55;;;23.90;60.10;;;;;;5025461;28;20566;-33
2023/06/16 10:18:20;;;;;;;2.35;2.15;;;24.00;60.00;;;;;;5024167;28;20144;-33
2023/06/16 10:20:47;;;;;;;2.80;2.60;;;24.10;59.80;;;;;;5026274;28;20040;-33
2023/06/16 10:23:13;;;;;;;3.88;2.47;;;24.10;59.20;;;;;;5025841;28;20032;-33
2023/06/16 10:25:40;;;;;;;2.58;2.25;;;24.10;59.00;;;;;;5024663;28;20124;-33
2023/06/16 10:28:10;;;;;;;3.70;2.67;;;24.10;58.80;;;;;;5026104;28;20589;-33
2023/06/16 10:30:36;;;;;;;1.90;1.80;;;24.10;59.10;;;;;;5025980;28;20431;-33
2023/06/16 10:33:22;;;;;;;2.70;2.50;;;24.20;59.30;;;;;;5025722;28;20022;-34
2023/06/16 10:35:57;;;;;;;3.42;2.60;;;24.30;59.20;;;;;;5023989;28;20025;-34
2023/06/16 10:38:35;;;;;;;3.38;2.58;;;24.30;58.60;;;;;;5025288;28;20373;-35
2023/06/16 10:41:06;;;;;;;3.30;3.00;;;24.40;58.30;;;;;;5025455;28;20057;-33
2023/06/16 10:43:32;;;;;;;2.90;2.60;;;24.40;58.20;;;;;;5025607;28;20029;-34
2023/06/16 10:46:18;;;;;;;2.70;2.50;;;24.40;57.80;;;;;;5024975;28;20033;-34
2023/06/16 10:49:08;;;;;;;2.63;2.42;;;24.50;58.00;;;;;;5025780;28;20103;-33
2023/06/16 10:51:50;;;;;;;3.00;2.70;;;24.50;58.00;;;;;;5022542;28;20136;-34
2023/06/16 10:54:43;;;;;;;;;;;24.60;58.00;;;;;;5025584;28;20153;-35
2023/06/16 10:57:15;;;;;;;2.92;2.72;;;24.60;57.30;;;;;;5025696;28;19919;-33
2023/06/16 10:59:53;;;;;;;3.10;2.75;;;24.70;57.10;;;;;;5024371;28;20044;-35
2023/06/16 11:02:48;;;;;;;2.92;2.63;;;24.70;57.30;;;;;;5025813;28;20025;-35
2023/06/16 11:05:20;;;;;;;3.00;2.78;;;24.70;57.40;;;;;;5025881;28;20017;-33
2023/06/16 11:08:15;;;;;;;2.70;2.50;;;24.80;57.40;;;;;;5005840;28;20029;-34
2023/06/16 11:11:02;;;;;;;2.65;2.45;;;24.80;57.70;;;;;;5013581;28;20464;-34
2023/06/16 11:13:33;;;;;;;3.53;3.22;;;24.90;57.60;;;;;;5023760;28;20067;-34
2023/06/16 11:16:00;;;;;;;3.90;3.47;;;25.00;56.90;;;;;;5025291;28;20108;-34
2023/06/16 11:18:26;;;;;;;4.20;3.15;;;25.10;56.70;;;;;;5024894;28;20029;-33
2023/06/16 11:21:06;;;;;;;3.50;3.20;;;25.20;56.90;;;;;;5024775;28;20044;-33
2023/06/16 11:23:32;;;;;;;3.08;2.80;;;25.30;57.00;;;;;;5025245;28;20064;-33
2023/06/16 11:26:12;;;;;;;2.88;2.60;;;25.50;57.00;;;;;;5024712;28;20033;-34
2023/06/16 11:28:43;;;;;;;3.70;3.22;;;25.60;56.20;;;;;;5022709;28;20045;-34
2023/06/16 11:31:10;;;;;;;6.13;3.00;;;25.70;56.60;;;;;;5023487;28;20039;-35
2023/06/16 11:33:35;;;;;;;3.40;3.10;;;25.80;56.80;;;;;;5024182;28;20030;-33
2023/06/16 11:36:22;;;;;;;3.20;2.88;;;25.80;57.10;;;;;;5022671;28;20496;-34
2023/06/16 11:38:50;;;;;;;3.13;2.72;;;25.90;57.10;;;;;;5014325;28;20079;-32
2023/06/16 11:41:27;;;;;;;3.85;2.90;;;25.90;57.30;;;;;;5024484;28;20461;-34
2023/06/16 11:43:54;;;;;;;3.42;3.13;;;26.00;56.40;;;;;;5012673;28;20768;-33
2023/06/16 11:46:25;;;;;;;4.78;3.50;;;26.00;56.20;;;;;;5022840;28;20439;-37
2023/06/16 11:48:51;;;;;;;3.85;3.50;;;25.90;56.20;;;;;;5019779;28;20023;-34
2023/06/16 11:51:17;;;;;;;3.20;2.90;;;26.00;56.30;;;;;;5013077;28;20026;-33
2023/06/16 11:53:45;;;;;;;2.80;2.60;;;26.00;56.50;;;;;;5020669;28;20050;-32
2023/06/16 11:56:31;;;;;;;3.67;2.92;;;26.00;56.60;;;;;;5016534;28;20573;-32
2023/06/16 11:59:03;;;;;;;3.17;2.88;;;26.00;55.70;;;;;;5016572;28;20037;-34
2023/06/16 12:01:29;;;;;;;3.05;2.75;;;26.00;55.90;;;;;;5013886;28;20032;-33
2023/06/16 12:03:57;;;;;;;2.88;2.67;;;26.00;56.00;;;;;;5022564;28;20025;-34
2023/06/16 12:06:24;;;;;;;3.40;3.10;;;26.00;55.60;;;;;;5023985;28;20906;-33
2023/06/16 12:08:53;;;;;;;3.20;2.90;;;26.00;55.80;;;;;;5023865;28;20025;-33
2023/06/16 12:11:27;;;;;;;3.22;2.90;;;26.10;55.80;;;;;;5018944;28;20033;-35
2023/06/16 12:13:54;;;;;;;3.15;2.83;;;26.20;55.70;;;;;;5023463;28;20614;-33
2023/06/16 12:16:20;;;;;;;3.10;2.80;;;26.30;55.50;;;;;;5022900;28;20029;-33
2023/06/16 12:19:09;;;;;;;3.83;3.20;;;26.40;55.30;;;;;;5022701;28;20025;-33
2023/06/16 12:21:35;;;;;;;3.05;2.75;;;26.50;55.40;;;;;;5004713;28;20084;-34
2023/06/16 12:24:02;;;;;;;3.22;2.90;;;26.50;55.40;;;;;;5021822;28;20424;-32
2023/06/16 12:26:41;;;;;;;2.45;2.25;;;26.50;55.50;;;;;;5031022;28;20029;-34
2023/06/16 12:29:12;;;;;;;2.72;2.53;;;26.40;55.60;;;;;;5021842;28;20033;-33
2023/06/16 12:32:03;;;;;;;3.42;2.50;;;26.40;55.70;;;;;;5027923;28;20025;-33
2023/06/16 12:34:35;;;;;;;2.85;2.60;;;26.30;55.70;;;;;;5024182;28;20562;-36
2023/06/16 12:37:13;;;;;;;2.60;2.40;;;26.20;55.60;;;;;;5027323;28;20049;-34
2023/06/16 12:39:42;;;;;;;2.63;2.42;;;26.20;55.90;;;;;;5011459;28;20041;-33
2023/06/16 12:42:10;;;;;;;2.78;2.58;;;26.40;56.00;;;;;;5027466;28;20036;-32
2023/06/16 12:44:48;;;;;;;2.95;2.67;;;26.40;55.90;;;;;;5028360;28;20021;-33
2023/06/16 12:47:16;;;;;;;3.35;2.70;;;26.40;55.00;;;;;;5025450;28;20191;-33
2023/06/16 12:49:42;;;;;;;3.17;2.78;;;26.50;55.10;;;;;;5023905;28;20017;-33
2023/06/16 12:52:14;;;;;;;3.63;3.03;;;26.60;54.70;;;;;;5024466;28;20464;-33
2023/06/16 12:54:39;;;;;;;3.08;2.78;;;26.60;54.80;;;;;;5026179;28;20037;-32